< Typhoon 199201 1992 Season Typhoon 199203 >
Typhoon 199202 (EKEKA)
General InformationDetailed Track InformationTrack Information on Google MapsList of All Images || Disaster Info.ResourceGoogle EarthGE AnimationAtom FeedGeoJSON
Detalied Best Track Wind (Time Zone = UTC)
Year Month Day Hour Lat. Long. Wind (kt) Gust (kt) Direc. of Major Storm Axis Radius of Major Storm Axis (nm) Radius of Minor Storm Axis (nm) Direc. of Major Gale Axis Radius of Major Gale Axis (nm) Radius of Minor Gale Axis (nm) Image
1992 2 3 12 9.5 181.4 50 0 - - - symmetric 100 100 Image
1992 2 3 18 9.5 179.8 45 0 - - - symmetric 80 80 Image
1992 2 4 00 9.3 178.2 45 0 - - - symmetric 80 80 Image
1992 2 4 06 9.3 176.5 45 0 - - - symmetric 80 80 Image
1992 2 4 12 9.2 174.7 40 0 - - - symmetric 80 80 Image
1992 2 4 18 9.5 173.1 0 0 - - - - - - Image
1992 2 5 00 10.0 171.0 0 0 - - - - - - Image
1992 2 5 06 10.5 169.5 0 0 - - - - - - Image
1992 2 5 12 10.6 167.6 0 0 - - - - - - Image
1992 2 5 18 10.9 166.7 0 0 - - - - - - Image
1992 2 6 00 11.0 165.5 0 0 - - - - - - Image
1992 2 6 06 10.8 164.4 0 0 - - - - - - Image
1992 2 6 12 10.5 163.5 0 0 - - - - - - Image
1992 2 6 18 10.0 162.5 0 0 - - - - - - Image
1992 2 7 00 9.5 161.5 0 0 - - - - - - Image
1992 2 7 06 9.3 159.8 0 0 - - - - - - Image
1992 2 7 12 8.8 157.7 0 0 - - - - - - Image
1992 2 7 18 8.4 155.9 0 0 - - - - - - Image
1992 2 8 00 7.6 154.0 0 0 - - - - - - Image
1992 2 8 06 6.8 152.2 0 0 - - - - - - Image
Japan Meteorological Agency Best Track Data | Correction Date : 2013-11-22
< Typhoon 199201 1992 Season Typhoon 199203 >

Help